Time;durP1;ratioP1;P1;durP2;ratioP2;P2;SDS_P1;SDS_P2;PMS_P1;PMS_P2;Temp;Humidity;BMP_temperature;BMP_pressure;BME280_temperature;BME280_humidity;BME280_pressure;Samples;Min_cycle;Max_cycle;Signal;HPM_P1;HPM_P2
2021/03/14 00:01:45;;;;;;;5.50;2.60;;;;;;;;;;5089130;28;20670;-74
2021/03/14 00:04:12;;;;;;;9.75;3.40;;;;;;;;;;5091023;28;20221;-74
2021/03/14 00:06:40;;;;;;;8.85;2.65;;;;;;;;;;5085796;28;20368;-74
2021/03/14 00:09:07;;;;;;;6.30;2.67;;;;;;;;;;5089350;28;20281;-74
2021/03/14 00:11:34;;;;;;;5.45;3.00;;;;;;;;;;5092065;28;20245;-74
2021/03/14 00:14:01;;;;;;;6.35;3.05;;;;;;;;;;5092700;28;20331;-74
2021/03/14 00:16:27;;;;;;;10.63;2.80;;;;;;;;;;5093153;28;20234;-74
2021/03/14 00:18:54;;;;;;;10.23;3.00;;;;;;;;;;5093112;28;20244;-75
2021/03/14 00:21:22;;;;;;;12.95;3.78;;;;;;;;;;5090457;28;20631;-76
2021/03/14 00:23:49;;;;;;;6.10;3.50;;;;;;;;;;5088425;28;20219;-74
2021/03/14 00:26:16;;;;;;;11.05;3.40;;;;;;;;;;5089436;28;20739;-74
2021/03/14 00:28:43;;;;;;;11.95;3.60;;;;;;;;;;5088863;28;20234;-74
2021/03/14 00:31:10;;;;;;;4.60;3.22;;;;;;;;;;5090010;28;20257;-73
2021/03/14 00:33:37;;;;;;;6.13;2.50;;;;;;;;;;5090561;28;20215;-74
2021/03/14 00:36:04;;;;;;;13.77;2.72;;;;;;;;;;5092933;28;20198;-74
2021/03/14 00:38:31;;;;;;;11.82;4.03;;;;;;;;;;5091790;28;20215;-73
2021/03/14 00:40:59;;;;;;;5.05;2.38;;;;;;;;;;5092582;28;20200;-73
2021/03/14 00:43:25;;;;;;;6.80;2.60;;;;;;;;;;5091054;28;20248;-75
2021/03/14 00:45:52;;;;;;;4.85;2.72;;;;;;;;;;5087680;28;20220;-73
2021/03/14 00:48:19;;;;;;;5.20;2.17;;;;;;;;;;5090013;28;20500;-75
2021/03/14 00:50:46;;;;;;;12.63;2.90;;;;;;;;;;5089191;28;20196;-73
2021/03/14 00:53:13;;;;;;;7.95;2.97;;;;;;;;;;5090862;28;20209;-74
2021/03/14 00:55:40;;;;;;;8.80;4.15;;;;;;;;;;5090621;28;20206;-74
2021/03/14 00:58:08;;;;;;;5.60;3.25;;;;;;;;;;5091417;28;20226;-74
2021/03/14 01:00:35;;;;;;;9.23;2.60;;;;;;;;;;5084254;28;20198;-73
2021/03/14 01:03:01;;;;;;;6.10;2.50;;;;;;;;;;5091481;28;20283;-74
2021/03/14 01:05:28;;;;;;;4.18;2.25;;;;;;;;;;5091846;28;20733;-75
2021/03/14 01:07:55;;;;;;;4.20;2.30;;;;;;;;;;5087476;28;20201;-75
2021/03/14 01:10:22;;;;;;;7.43;2.60;;;;;;;;;;5088844;28;20199;-75
2021/03/14 01:12:48;;;;;;;8.75;3.20;;;;;;;;;;5081460;28;20192;-76
2021/03/14 01:15:17;;;;;;;7.10;2.90;;;;;;;;;;5071940;28;20624;-74
2021/03/14 01:17:44;;;;;;;8.32;2.88;;;;;;;;;;5064438;28;20582;-73
2021/03/14 01:20:11;;;;;;;11.52;3.40;;;;;;;;;;5068686;28;20288;-74
2021/03/14 01:22:38;;;;;;;4.63;2.45;;;;;;;;;;5071886;28;20212;-74
2021/03/14 01:25:06;;;;;;;17.77;3.70;;;;;;;;;;5070451;28;20304;-75
2021/03/14 01:27:33;;;;;;;10.15;3.35;;;;;;;;;;5070653;28;20303;-74
2021/03/14 01:29:59;;;;;;;6.15;2.42;;;;;;;;;;5067658;28;20655;-74
2021/03/14 01:32:27;;;;;;;12.10;2.30;;;;;;;;;;5068109;28;20206;-75
2021/03/14 01:34:54;;;;;;;12.05;2.78;;;;;;;;;;5069706;28;20687;-73
2021/03/14 01:37:21;;;;;;;4.97;2.28;;;;;;;;;;5069501;28;20196;-73
2021/03/14 01:39:48;;;;;;;4.28;2.13;;;;;;;;;;5069121;28;20723;-74
2021/03/14 01:42:15;;;;;;;4.07;2.00;;;;;;;;;;5070202;28;20196;-73
2021/03/14 01:44:43;;;;;;;7.05;2.38;;;;;;;;;;5070664;28;20304;-73
2021/03/14 01:47:11;;;;;;;7.97;2.47;;;;;;;;;;5066420;28;20252;-74
2021/03/14 01:49:39;;;;;;;5.10;1.70;;;;;;;;;;5069482;28;20202;-73
2021/03/14 01:52:06;;;;;;;4.00;1.80;;;;;;;;;;5068372;28;20238;-76
2021/03/14 01:54:33;;;;;;;4.18;1.60;;;;;;;;;;5067556;28;20213;-76
2021/03/14 01:57:00;;;;;;;5.03;1.95;;;;;;;;;;5061431;28;20253;-73
2021/03/14 01:59:28;;;;;;;6.28;2.17;;;;;;;;;;5069507;28;20193;-74
2021/03/14 02:01:54;;;;;;;7.45;2.15;;;;;;;;;;5068564;28;20576;-75
2021/03/14 02:04:21;;;;;;;3.05;1.27;;;;;;;;;;5070416;28;20221;-74
2021/03/14 02:06:49;;;;;;;2.70;1.30;;;;;;;;;;5062974;28;20272;-73
2021/03/14 02:09:16;;;;;;;6.60;1.80;;;;;;;;;;5063737;28;20224;-74
2021/03/14 02:11:45;;;;;;;1.63;1.35;;;;;;;;;;5071649;28;20203;-73
2021/03/14 02:14:12;;;;;;;6.30;1.60;;;;;;;;;;5077193;28;20317;-75
2021/03/14 02:16:42;;;;;;;7.80;1.92;;;;;;;;;;5091009;28;20192;-74
2021/03/14 02:19:12;;;;;;;2.70;1.70;;;;;;;;;;5090379;28;20686;-75
2021/03/14 02:21:39;;;;;;;3.88;2.08;;;;;;;;;;5092712;28;20247;-74
2021/03/14 02:24:09;;;;;;;6.15;2.13;;;;;;;;;;5093089;28;20590;-74
2021/03/14 02:26:37;;;;;;;3.92;1.73;;;;;;;;;;5094211;28;20221;-76
2021/03/14 02:29:05;;;;;;;6.93;2.40;;;;;;;;;;5095116;28;20245;-75
2021/03/14 02:31:32;;;;;;;3.63;1.80;;;;;;;;;;5084984;28;20280;-73
2021/03/14 02:34:01;;;;;;;3.90;1.60;;;;;;;;;;5095101;28;20652;-73
2021/03/14 02:36:28;;;;;;;3.28;1.60;;;;;;;;;;5088803;28;20280;-75
2021/03/14 02:38:54;;;;;;;7.28;1.77;;;;;;;;;;5090351;28;20259;-75
2021/03/14 02:41:22;;;;;;;3.75;1.75;;;;;;;;;;5090809;28;20701;-75
2021/03/14 02:43:49;;;;;;;2.53;1.55;;;;;;;;;;5085177;28;20607;-74
2021/03/14 02:46:18;;;;;;;2.97;1.90;;;;;;;;;;5093304;28;20234;-75
2021/03/14 02:48:44;;;;;;;7.05;2.00;;;;;;;;;;5093168;28;20198;-74
2021/03/14 02:51:12;;;;;;;5.47;1.98;;;;;;;;;;5094994;28;20288;-73
2021/03/14 02:53:39;;;;;;;5.30;1.70;;;;;;;;;;5094454;28;20567;-73
2021/03/14 02:56:07;;;;;;;8.13;3.40;;;;;;;;;;5094811;28;20240;-73
2021/03/14 02:58:34;;;;;;;4.55;1.70;;;;;;;;;;5093042;28;20200;-73
2021/03/14 03:01:03;;;;;;;8.70;2.42;;;;;;;;;;5090065;28;20206;-73
2021/03/14 03:03:31;;;;;;;6.30;2.10;;;;;;;;;;5091058;28;20217;-73
2021/03/14 03:05:58;;;;;;;3.58;2.22;;;;;;;;;;5093034;28;20236;-74
2021/03/14 03:08:25;;;;;;;3.92;2.22;;;;;;;;;;5092509;28;20239;-73
2021/03/14 03:10:53;;;;;;;4.63;2.20;;;;;;;;;;5091644;28;20219;-73
2021/03/14 03:13:20;;;;;;;8.00;2.65;;;;;;;;;;5093162;28;20244;-74
2021/03/14 03:15:47;;;;;;;7.57;2.80;;;;;;;;;;5092334;28;20235;-73
2021/03/14 03:18:15;;;;;;;8.93;3.22;;;;;;;;;;5094503;28;20214;-74
2021/03/14 03:20:43;;;;;;;5.32;2.75;;;;;;;;;;5094485;28;20196;-74
2021/03/14 03:23:11;;;;;;;5.93;3.10;;;;;;;;;;5090009;28;20235;-73
2021/03/14 03:25:38;;;;;;;6.47;3.13;;;;;;;;;;5089936;28;20232;-73
2021/03/14 03:28:05;;;;;;;5.82;3.60;;;;;;;;;;5091996;28;20234;-75
2021/03/14 03:30:32;;;;;;;6.50;3.58;;;;;;;;;;5083515;28;20190;-74
2021/03/14 03:32:59;;;;;;;8.35;3.70;;;;;;;;;;5083577;28;20278;-74
2021/03/14 03:35:27;;;;;;;5.78;3.90;;;;;;;;;;5092313;28;20203;-74
2021/03/14 03:37:55;;;;;;;7.63;4.28;;;;;;;;;;5092891;28;20205;-75
2021/03/14 03:40:23;;;;;;;5.43;4.30;;;;;;;;;;5085253;28;20284;-75
2021/03/14 03:42:53;;;;;;;8.32;4.10;;;;;;;;;;5093262;28;20201;-74
2021/03/14 03:45:21;;;;;;;7.18;4.00;;;;;;;;;;5089134;28;20196;-74
2021/03/14 03:47:48;;;;;;;5.90;3.40;;;;;;;;;;5088401;28;20218;-75
2021/03/14 03:50:16;;;;;;;7.90;4.30;;;;;;;;;;5084726;28;20559;-73
2021/03/14 03:52:43;;;;;;;9.40;5.57;;;;;;;;;;5089345;28;20246;-75
2021/03/14 03:55:12;;;;;;;14.27;4.75;;;;;;;;;;5084239;28;20589;-73
2021/03/14 03:57:39;;;;;;;9.48;3.90;;;;;;;;;;5092617;28;20226;-73
2021/03/14 04:00:09;;;;;;;9.50;4.70;;;;;;;;;;5093291;28;20198;-74
2021/03/14 04:02:37;;;;;;;6.97;4.85;;;;;;;;;;5093800;28;20198;-74
2021/03/14 04:05:04;;;;;;;7.45;4.15;;;;;;;;;;5093092;28;20239;-74
2021/03/14 04:07:32;;;;;;;6.82;4.25;;;;;;;;;;5090263;28;20702;-74
2021/03/14 04:09:59;;;;;;;9.68;3.72;;;;;;;;;;5089019;28;20560;-73
2021/03/14 04:12:27;;;;;;;9.98;4.15;;;;;;;;;;5091024;28;20608;-73
2021/03/14 04:14:54;;;;;;;8.40;4.00;;;;;;;;;;5089973;28;20275;-74
2021/03/14 04:17:21;;;;;;;7.88;3.20;;;;;;;;;;5091633;28;20707;-73
2021/03/14 04:19:48;;;;;;;10.73;3.55;;;;;;;;;;5091872;28;20201;-73
2021/03/14 04:22:15;;;;;;;6.55;2.72;;;;;;;;;;5093085;28;20196;-73
2021/03/14 04:24:43;;;;;;;11.68;3.03;;;;;;;;;;5085029;28;20564;-74
2021/03/14 04:27:10;;;;;;;5.80;2.60;;;;;;;;;;5091888;28;20227;-74
2021/03/14 04:29:38;;;;;;;12.65;4.00;;;;;;;;;;5091378;28;20258;-73
2021/03/14 04:32:06;;;;;;;7.72;3.50;;;;;;;;;;5088253;28;20255;-74
2021/03/14 04:34:33;;;;;;;7.72;3.45;;;;;;;;;;5088661;28;20212;-74
2021/03/14 04:37:00;;;;;;;6.43;3.17;;;;;;;;;;5090275;28;20268;-74
2021/03/14 04:39:27;;;;;;;10.27;4.03;;;;;;;;;;5090414;28;20195;-73
2021/03/14 04:41:54;;;;;;;8.75;4.28;;;;;;;;;;5088802;28;20238;-73
2021/03/14 04:44:22;;;;;;;5.68;3.92;;;;;;;;;;5092499;28;20620;-74
2021/03/14 04:46:50;;;;;;;7.88;3.22;;;;;;;;;;5092744;28;20211;-73
2021/03/14 04:49:16;;;;;;;9.98;4.25;;;;;;;;;;5092466;28;20577;-74
2021/03/14 04:51:45;;;;;;;13.25;4.15;;;;;;;;;;5091478;28;20200;-73
2021/03/14 04:54:12;;;;;;;6.95;3.80;;;;;;;;;;5087747;28;20274;-73
2021/03/14 04:56:39;;;;;;;6.15;3.60;;;;;;;;;;5089492;28;20283;-74
2021/03/14 04:59:08;;;;;;;6.05;3.40;;;;;;;;;;5090312;28;20203;-72
2021/03/14 05:01:37;;;;;;;9.02;4.00;;;;;;;;;;5090524;28;20659;-74
2021/03/14 05:04:05;;;;;;;8.18;3.83;;;;;;;;;;5081596;28;20213;-72
2021/03/14 05:06:32;;;;;;;11.45;5.00;;;;;;;;;;5085056;28;20212;-73
2021/03/14 05:09:00;;;;;;;8.35;4.55;;;;;;;;;;5092357;28;20209;-74
2021/03/14 05:11:27;;;;;;;13.85;4.97;;;;;;;;;;5091869;28;20731;-74
2021/03/14 05:13:54;;;;;;;11.40;4.80;;;;;;;;;;5091768;28;20221;-74
2021/03/14 05:16:20;;;;;;;10.07;5.22;;;;;;;;;;5087323;28;20201;-75
2021/03/14 05:18:48;;;;;;;9.00;4.63;;;;;;;;;;5088491;28;20220;-74
2021/03/14 05:21:15;;;;;;;9.50;4.50;;;;;;;;;;5089621;28;20281;-75
2021/03/14 05:23:43;;;;;;;7.47;4.35;;;;;;;;;;5084413;28;20287;-73
2021/03/14 05:26:11;;;;;;;8.50;4.90;;;;;;;;;;5086219;28;20220;-74
2021/03/14 05:28:38;;;;;;;12.77;3.88;;;;;;;;;;5090257;28;20205;-73
2021/03/14 05:31:25;;;;;;;8.20;3.40;;;;;;;;;;5092013;28;20187;-75
2021/03/14 05:33:52;;;;;;;8.85;3.30;;;;;;;;;;5084411;28;20328;-75
2021/03/14 05:36:19;;;;;;;7.72;3.45;;;;;;;;;;5091734;28;20504;-74
2021/03/14 05:38:46;;;;;;;10.25;3.90;;;;;;;;;;5087302;28;20280;-75
2021/03/14 05:41:13;;;;;;;7.75;3.88;;;;;;;;;;5088235;28;20203;-74
2021/03/14 05:43:40;;;;;;;5.82;3.97;;;;;;;;;;5089822;28;20486;-73
2021/03/14 05:46:08;;;;;;;6.63;3.75;;;;;;;;;;5089831;28;20621;-73
2021/03/14 05:48:35;;;;;;;10.45;4.32;;;;;;;;;;5088278;28;20687;-74
2021/03/14 05:51:02;;;;;;;11.27;4.20;;;;;;;;;;5094955;28;20197;-74
2021/03/14 05:53:30;;;;;;;10.35;3.90;;;;;;;;;;5091616;28;20233;-74
2021/03/14 05:55:57;;;;;;;14.60;4.43;;;;;;;;;;5092507;28;20200;-74
2021/03/14 05:58:24;;;;;;;7.80;4.82;;;;;;;;;;5093674;28;20292;-73
2021/03/14 06:00:51;;;;;;;10.73;5.03;;;;;;;;;;5093061;28;20196;-74
2021/03/14 06:03:19;;;;;;;12.13;5.38;;;;;;;;;;5093719;28;20247;-73
2021/03/14 06:05:46;;;;;;;8.63;5.72;;;;;;;;;;5094566;28;20212;-73
2021/03/14 06:08:12;;;;;;;9.30;5.07;;;;;;;;;;5095411;28;20702;-74
2021/03/14 06:10:40;;;;;;;10.02;5.00;;;;;;;;;;5094574;28;20192;-74
2021/03/14 06:13:07;;;;;;;9.63;5.82;;;;;;;;;;5095249;28;20204;-76
2021/03/14 06:15:34;;;;;;;9.85;5.10;;;;;;;;;;5092065;28;20224;-75
2021/03/14 06:18:01;;;;;;;13.10;5.95;;;;;;;;;;5091844;28;20203;-75
2021/03/14 06:20:36;;;;;;;13.25;5.15;;;;;;;;;;5092481;28;20287;-76
2021/03/14 06:23:12;;;;;;;9.07;5.10;;;;;;;;;;5119877;27;20213;-75
2021/03/14 06:25:40;;;;;;;10.15;5.40;;;;;;;;;;5124837;27;20191;-75
2021/03/14 06:28:07;;;;;;;9.07;5.05;;;;;;;;;;5093181;28;20227;-73
2021/03/14 06:30:34;;;;;;;10.82;6.00;;;;;;;;;;5094323;28;20284;-73
2021/03/14 06:33:01;;;;;;;11.05;5.75;;;;;;;;;;5093949;28;20219;-73
2021/03/14 06:35:37;;;;;;;15.25;5.63;;;;;;;;;;5094853;28;20196;-73
2021/03/14 06:38:17;;;;;;;11.25;5.35;;;;;;;;;;5092588;28;20323;-74
2021/03/14 06:40:44;;;;;;;12.82;5.30;;;;;;;;;;5089971;28;20283;-74
2021/03/14 06:43:12;;;;;;;10.75;4.93;;;;;;;;;;5091929;28;20716;-74
2021/03/14 06:45:39;;;;;;;7.45;4.45;;;;;;;;;;5084013;28;20201;-77
2021/03/14 06:48:07;;;;;;;7.63;5.15;;;;;;;;;;5091420;28;20217;-75
2021/03/14 06:50:37;;;;;;;9.07;5.05;;;;;;;;;;5088949;28;20567;-75
2021/03/14 06:53:08;;;;;;;9.05;4.88;;;;;;;;;;5089390;28;20559;-75
2021/03/14 06:55:36;;;;;;;10.15;5.00;;;;;;;;;;5124888;27;20205;-72
2021/03/14 06:58:17;;;;;;;5.45;4.30;;;;;;;;;;5087944;28;20200;-76
2021/03/14 07:01:03;;;;;;;6.55;4.32;;;;;;;;;;5089651;28;20223;-73
2021/03/14 07:03:30;;;;;;;10.23;5.35;;;;;;;;;;5091884;28;20659;-74
2021/03/14 07:06:13;;;;;;;7.45;4.88;;;;;;;;;;5092304;28;20552;-76
2021/03/14 07:08:40;;;;;;;8.95;4.55;;;;;;;;;;5090362;28;20288;-74
2021/03/14 07:11:07;;;;;;;9.57;5.55;;;;;;;;;;5090687;28;20185;-73
2021/03/14 07:13:35;;;;;;;6.88;4.90;;;;;;;;;;5089396;28;20667;-72
2021/03/14 07:16:04;;;;;;;7.88;4.30;;;;;;;;;;5086478;28;20627;-74
2021/03/14 07:18:31;;;;;;;10.10;5.70;;;;;;;;;;5091446;28;20246;-74
2021/03/14 07:20:58;;;;;;;9.35;4.85;;;;;;;;;;5092654;28;20285;-74
2021/03/14 07:23:32;;;;;;;6.13;4.60;;;;;;;;;;5084846;28;20287;-73
2021/03/14 07:25:58;;;;;;;13.75;5.50;;;;;;;;;;5085609;28;20289;-73
2021/03/14 07:28:25;;;;;;;8.40;4.45;;;;;;;;;;5090527;28;20619;-74
2021/03/14 07:30:53;;;;;;;11.50;4.68;;;;;;;;;;5088969;28;20208;-74
2021/03/14 07:33:21;;;;;;;10.88;5.45;;;;;;;;;;5088623;28;20226;-72
2021/03/14 07:35:48;;;;;;;10.27;4.50;;;;;;;;;;5085972;28;20671;-75
2021/03/14 07:38:15;;;;;;;10.68;5.10;;;;;;;;;;5089452;28;20190;-73
2021/03/14 07:40:42;;;;;;;9.05;4.93;;;;;;;;;;5089822;28;20254;-76
2021/03/14 07:43:10;;;;;;;9.40;5.38;;;;;;;;;;5091512;28;20194;-72
2021/03/14 07:45:38;;;;;;;9.52;4.35;;;;;;;;;;5091986;28;20283;-72
2021/03/14 07:48:06;;;;;;;6.82;4.65;;;;;;;;;;5092785;28;20224;-74
2021/03/14 07:50:37;;;;;;;13.75;4.65;;;;;;;;;;5092422;28;20193;-72
2021/03/14 07:53:07;;;;;;;6.57;3.95;;;;;;;;;;5092959;28;20221;-73
2021/03/14 07:55:34;;;;;;;10.75;5.00;;;;;;;;;;5093448;28;20276;-73
2021/03/14 07:58:01;;;;;;;12.68;4.22;;;;;;;;;;5090360;28;20199;-71
2021/03/14 08:00:29;;;;;;;7.50;4.60;;;;;;;;;;5089314;28;20193;-74
2021/03/14 08:02:57;;;;;;;6.43;4.00;;;;;;;;;;5087394;28;20296;-76
2021/03/14 08:05:38;;;;;;;10.88;4.75;;;;;;;;;;5089043;28;20290;-78
2021/03/14 08:08:06;;;;;;;9.90;3.97;;;;;;;;;;5083226;28;20209;-75
2021/03/14 08:10:34;;;;;;;9.13;3.92;;;;;;;;;;5088777;28;20210;-74
2021/03/14 08:13:01;;;;;;;5.93;3.50;;;;;;;;;;5088254;28;20645;-76
2021/03/14 08:15:29;;;;;;;7.38;4.40;;;;;;;;;;5088689;28;20226;-75
2021/03/14 08:17:58;;;;;;;8.35;4.28;;;;;;;;;;5088945;28;20276;-74
2021/03/14 08:20:36;;;;;;;6.05;3.72;;;;;;;;;;5081120;28;20228;-74
2021/03/14 08:23:05;;;;;;;7.68;3.85;;;;;;;;;;5119365;27;20247;-75
2021/03/14 08:25:36;;;;;;;7.97;3.78;;;;;;;;;;5085687;28;20189;-74
2021/03/14 08:28:23;;;;;;;7.55;4.90;;;;;;;;;;5084652;28;20214;-74
2021/03/14 08:30:50;;;;;;;12.30;5.20;;;;;;;;;;5083123;28;20276;-75
2021/03/14 08:33:31;;;;;;;19.52;5.55;;;;;;;;;;5090962;28;20872;-77
2021/03/14 08:35:59;;;;;;;6.78;4.38;;;;;;;;;;5088207;28;20205;-77
2021/03/14 08:38:28;;;;;;;13.55;6.18;;;;;;;;;;5089217;28;20221;-73
2021/03/14 08:41:09;;;;;;;10.05;4.65;;;;;;;;;;5089576;28;20280;-74
2021/03/14 08:43:42;;;;;;;10.25;5.28;;;;;;;;;;5088353;28;20268;-73
2021/03/14 08:46:12;;;;;;;7.47;4.10;;;;;;;;;;5107658;27;20197;-74
2021/03/14 08:48:39;;;;;;;10.45;5.15;;;;;;;;;;5088319;28;20248;-75
2021/03/14 08:51:06;;;;;;;12.48;5.45;;;;;;;;;;5092275;28;20255;-74
2021/03/14 08:53:33;;;;;;;11.63;5.28;;;;;;;;;;5088705;28;20748;-73
2021/03/14 08:56:00;;;;;;;10.70;5.00;;;;;;;;;;5091349;28;20205;-74
2021/03/14 08:58:27;;;;;;;13.00;5.97;;;;;;;;;;5086229;28;20544;-75
2021/03/14 09:01:03;;;;;;;15.02;5.43;;;;;;;;;;5088253;28;20247;-75
2021/03/14 09:03:30;;;;;;;10.15;5.10;;;;;;;;;;5089379;28;20741;-75
2021/03/14 09:06:21;;;;;;;11.05;5.93;;;;;;;;;;5088097;28;20204;-76
2021/03/14 09:08:58;;;;;;;10.95;6.30;;;;;;;;;;5088369;28;20205;-74
2021/03/14 09:11:40;;;;;;;17.33;5.95;;;;;;;;;;5090967;28;20593;-76
2021/03/14 09:14:22;;;;;;;10.15;5.60;;;;;;;;;;5091135;28;20319;-74
2021/03/14 09:16:50;;;;;;;13.90;5.68;;;;;;;;;;5090868;28;20548;-75
2021/03/14 09:19:25;;;;;;;13.98;6.15;;;;;;;;;;5090369;28;20606;-74
2021/03/14 09:21:52;;;;;;;11.15;5.30;;;;;;;;;;5087500;28;20199;-76
2021/03/14 09:24:33;;;;;;;20.88;4.93;;;;;;;;;;5088450;28;20321;-75
2021/03/14 09:27:01;;;;;;;10.23;5.88;;;;;;;;;;5088733;28;20221;-74
2021/03/14 09:29:37;;;;;;;9.02;4.60;;;;;;;;;;5088789;28;20215;-76
2021/03/14 09:32:05;;;;;;;9.55;4.90;;;;;;;;;;5088363;28;20626;-74
2021/03/14 09:34:32;;;;;;;19.42;7.18;;;;;;;;;;5087968;28;20225;-74
2021/03/14 09:36:59;;;;;;;6.97;5.03;;;;;;;;;;5089547;28;20246;-74
2021/03/14 09:39:26;;;;;;;10.75;5.57;;;;;;;;;;5090038;28;20212;-75
2021/03/14 09:41:53;;;;;;;12.40;7.78;;;;;;;;;;5083022;28;20194;-75
2021/03/14 09:44:20;;;;;;;9.10;6.97;;;;;;;;;;5091201;28;20236;-73
2021/03/14 09:46:54;;;;;;;11.27;7.65;;;;;;;;;;5090453;28;20249;-75
2021/03/14 09:49:22;;;;;;;12.85;6.90;;;;;;;;;;5083638;28;21393;-75
2021/03/14 09:51:51;;;;;;;24.70;11.50;;;;;;;;;;5081422;28;20224;-79
2021/03/14 09:54:18;;;;;;;13.10;7.90;;;;;;;;;;5081737;28;20213;-75
2021/03/14 09:56:50;;;;;;;12.52;6.63;;;;;;;;;;5088823;28;20196;-76
2021/03/14 09:59:20;;;;;;;13.38;8.02;;;;;;;;;;5088657;28;20198;-75
2021/03/14 10:01:48;;;;;;;10.32;6.15;;;;;;;;;;5085318;28;20190;-76
2021/03/14 10:04:15;;;;;;;17.25;9.10;;;;;;;;;;5090226;28;20217;-73
2021/03/14 10:06:43;;;;;;;13.00;9.38;;;;;;;;;;5081630;28;20681;-75
2021/03/14 10:09:25;;;;;;;12.45;6.18;;;;;;;;;;5089171;28;20203;-76
2021/03/14 10:11:52;;;;;;;7.75;5.88;;;;;;;;;;5090313;28;20193;-74
2021/03/14 10:14:20;;;;;;;7.50;5.47;;;;;;;;;;5079873;28;20231;-74
2021/03/14 10:16:48;;;;;;;6.03;4.53;;;;;;;;;;5086302;28;20328;-75
2021/03/14 10:19:15;;;;;;;4.80;3.85;;;;;;;;;;5083930;28;20610;-75
2021/03/14 10:21:46;;;;;;;5.90;4.43;;;;;;;;;;5084348;28;20281;-77
2021/03/14 10:24:21;;;;;;;5.80;4.30;;;;;;;;;;5088997;28;20220;-75
2021/03/14 10:26:52;;;;;;;6.47;5.38;;;;;;;;;;5079841;28;20225;-75
2021/03/14 10:29:19;;;;;;;8.52;6.07;;;;;;;;;;5085258;28;20269;-75
2021/03/14 10:31:46;;;;;;;6.03;4.80;;;;;;;;;;5076598;28;20238;-76
2021/03/14 10:34:13;;;;;;;8.50;5.85;;;;;;;;;;5084115;28;20213;-73
2021/03/14 10:36:40;;;;;;;12.10;8.80;;;;;;;;;;5092399;28;20197;-74
2021/03/14 10:39:08;;;;;;;7.38;5.63;;;;;;;;;;5091522;28;20288;-75
2021/03/14 10:41:40;;;;;;;6.25;4.82;;;;;;;;;;5090619;28;20288;-74
2021/03/14 10:44:07;;;;;;;7.18;4.15;;;;;;;;;;5084589;28;20217;-75
2021/03/14 10:46:35;;;;;;;8.25;4.70;;;;;;;;;;5094624;28;20225;-75
2021/03/14 10:49:02;;;;;;;3.47;3.17;;;;;;;;;;5086601;28;20200;-75
2021/03/14 10:51:31;;;;;;;4.70;3.53;;;;;;;;;;5090407;28;20296;-75
2021/03/14 10:54:06;;;;;;;7.95;4.13;;;;;;;;;;5089435;28;20206;-75
2021/03/14 10:56:34;;;;;;;4.45;3.00;;;;;;;;;;5093070;28;20276;-75
2021/03/14 10:59:01;;;;;;;3.00;2.70;;;;;;;;;;5083360;28;20281;-73
2021/03/14 11:01:35;;;;;;;4.20;3.80;;;;;;;;;;5085214;28;20192;-72
2021/03/14 11:04:03;;;;;;;4.20;3.00;;;;;;;;;;5092556;28;20218;-74
2021/03/14 11:06:31;;;;;;;3.90;3.22;;;;;;;;;;5084537;28;20201;-73
2021/03/14 11:09:02;;;;;;;4.65;3.60;;;;;;;;;;5093798;28;20606;-75
2021/03/14 11:11:43;;;;;;;3.65;3.25;;;;;;;;;;5092592;28;20228;-75
2021/03/14 11:14:25;;;;;;;5.00;2.70;;;;;;;;;;5089449;28;20236;-76
2021/03/14 11:17:04;;;;;;;3.88;3.42;;;;;;;;;;5090287;28;20943;-75
2021/03/14 11:19:31;;;;;;;5.10;3.30;;;;;;;;;;5091201;28;20531;-75
2021/03/14 11:21:58;;;;;;;3.83;3.20;;;;;;;;;;5092187;28;20512;-73
2021/03/14 11:24:25;;;;;;;4.97;3.40;;;;;;;;;;5083695;28;20503;-74
2021/03/14 11:26:52;;;;;;;4.30;3.67;;;;;;;;;;5090517;28;20885;-73
2021/03/14 11:29:19;;;;;;;4.20;3.80;;;;;;;;;;5086694;28;20288;-76
2021/03/14 11:31:45;;;;;;;4.15;3.75;;;;;;;;;;5091764;28;20442;-73
2021/03/14 11:34:13;;;;;;;7.33;4.70;;;;;;;;;;5093829;28;20573;-74
2021/03/14 11:36:40;;;;;;;7.55;5.10;;;;;;;;;;5084876;28;21019;-75
2021/03/14 11:39:08;;;;;;;6.20;5.35;;;;;;;;;;5089827;28;20287;-75
2021/03/14 11:41:34;;;;;;;6.15;5.40;;;;;;;;;;5090766;28;20638;-74
2021/03/14 11:44:01;;;;;;;7.47;6.65;;;;;;;;;;5090601;28;20319;-75
2021/03/14 11:46:29;;;;;;;9.23;8.33;;;;;;;;;;5091249;28;20281;-74
2021/03/14 11:48:55;;;;;;;4.53;4.13;;;;;;;;;;5090351;28;20561;-76
2021/03/14 11:51:24;;;;;;;5.68;5.00;;;;;;;;;;5084177;28;20486;-76
2021/03/14 11:53:50;;;;;;;8.48;5.10;;;;;;;;;;5125522;27;20247;-75
2021/03/14 11:56:17;;;;;;;6.60;4.13;;;;;;;;;;5093359;28;20281;-75
2021/03/14 11:58:44;;;;;;;7.13;5.00;;;;;;;;;;5092935;28;20974;-74
2021/03/14 12:01:11;;;;;;;4.60;4.20;;;;;;;;;;5088428;28;20558;-75
2021/03/14 12:03:38;;;;;;;5.13;4.20;;;;;;;;;;5089980;28;20515;-75
2021/03/14 12:06:05;;;;;;;8.07;5.20;;;;;;;;;;5090223;28;20474;-74
2021/03/14 12:08:33;;;;;;;5.37;4.60;;;;;;;;;;5090605;28;20534;-73
2021/03/14 12:11:03;;;;;;;4.63;4.23;;;;;;;;;;5091163;28;20469;-74
2021/03/14 12:13:30;;;;;;;5.07;4.40;;;;;;;;;;5084939;28;20470;-73
2021/03/14 12:15:56;;;;;;;7.00;4.60;;;;;;;;;;5090070;28;20562;-75
2021/03/14 12:18:23;;;;;;;8.30;5.17;;;;;;;;;;5091505;28;20452;-75
2021/03/14 12:20:50;;;;;;;4.97;4.23;;;;;;;;;;5092614;28;20526;-74
2021/03/14 12:23:18;;;;;;;5.67;4.10;;;;;;;;;;5089568;28;20465;-74
2021/03/14 12:25:45;;;;;;;4.60;4.10;;;;;;;;;;5088673;28;20579;-75
2021/03/14 12:28:12;;;;;;;4.97;4.53;;;;;;;;;;5088737;28;20563;-76
2021/03/14 12:30:39;;;;;;;4.97;4.30;;;;;;;;;;5090814;28;20485;-75
2021/03/14 12:33:06;;;;;;;4.30;3.73;;;;;;;;;;5089436;28;20503;-75
2021/03/14 12:35:33;;;;;;;5.77;4.70;;;;;;;;;;5090656;28;20543;-77
2021/03/14 12:38:00;;;;;;;5.27;4.63;;;;;;;;;;5088474;28;20808;-73
2021/03/14 12:40:27;;;;;;;6.33;5.10;;;;;;;;;;5087408;28;20435;-75
2021/03/14 12:42:55;;;;;;;5.43;4.93;;;;;;;;;;5082328;28;20803;-74
2021/03/14 12:45:22;;;;;;;6.90;4.50;;;;;;;;;;5090665;28;20453;-76
2021/03/14 12:47:49;;;;;;;5.70;4.87;;;;;;;;;;5090723;28;20964;-74
2021/03/14 12:50:17;;;;;;;6.07;5.00;;;;;;;;;;5085189;28;20490;-75
2021/03/14 12:52:44;;;;;;;5.90;5.27;;;;;;;;;;5092202;28;20449;-75
2021/03/14 12:55:12;;;;;;;5.20;4.70;;;;;;;;;;5084273;28;20563;-75
2021/03/14 12:57:39;;;;;;;5.77;4.73;;;;;;;;;;5091945;28;20534;-75
2021/03/14 13:00:08;;;;;;;6.20;5.20;;;;;;;;;;5088302;28;20543;-75
2021/03/14 13:02:35;;;;;;;5.90;4.47;;;;;;;;;;5087346;28;20533;-75
2021/03/14 13:05:02;;;;;;;5.40;4.90;;;;;;;;;;5089036;28;20569;-75
2021/03/14 13:07:29;;;;;;;5.10;4.60;;;;;;;;;;5089460;28;20507;-75
2021/03/14 13:09:56;;;;;;;5.00;4.43;;;;;;;;;;5083182;28;20522;-74
2021/03/14 13:12:23;;;;;;;5.03;4.60;;;;;;;;;;5083152;28;20534;-74
2021/03/14 13:14:49;;;;;;;4.60;4.20;;;;;;;;;;5091568;28;20515;-74
2021/03/14 13:17:17;;;;;;;6.07;4.20;;;;;;;;;;5092133;28;20450;-73
2021/03/14 13:19:44;;;;;;;6.70;6.10;;;;;;;;;;5090933;28;20864;-76
2021/03/14 13:22:11;;;;;;;5.30;4.57;;;;;;;;;;5090787;28;20447;-75
2021/03/14 13:24:38;;;;;;;6.27;5.30;;;;;;;;;;5087213;28;20463;-74
2021/03/14 13:27:05;;;;;;;8.73;5.80;;;;;;;;;;5084590;28;21088;-75
2021/03/14 13:29:32;;;;;;;5.87;4.93;;;;;;;;;;5088985;28;20447;-73
2021/03/14 13:31:59;;;;;;;5.37;4.27;;;;;;;;;;5085968;28;20538;-74
2021/03/14 13:34:27;;;;;;;4.47;4.00;;;;;;;;;;5080060;28;21055;-73
2021/03/14 13:36:54;;;;;;;4.67;3.63;;;;;;;;;;5082851;28;20551;-76
2021/03/14 13:39:20;;;;;;;4.27;3.87;;;;;;;;;;5081409;28;20452;-78
2021/03/14 13:41:47;;;;;;;4.07;3.67;;;;;;;;;;5088247;28;21206;-74
2021/03/14 13:44:14;;;;;;;4.40;4.00;;;;;;;;;;5089693;28;20467;-74
2021/03/14 13:46:44;;;;;;;6.00;3.60;;;;;;;;;;5089811;28;20872;-73
2021/03/14 13:49:11;;;;;;;4.90;3.40;;;;;;;;;;5090371;28;20547;-75
2021/03/14 13:51:39;;;;;;;5.63;4.13;;;;;;;;;;5084607;28;20443;-73
2021/03/14 13:54:06;;;;;;;4.50;3.60;;;;;;;;;;5091320;28;20550;-73
2021/03/14 13:56:33;;;;;;;5.70;3.20;;;;;;;;;;5091316;28;20463;-74
2021/03/14 13:58:59;;;;;;;9.73;3.77;;;;;;;;;;5089156;28;20793;-73
2021/03/14 14:01:26;;;;;;;6.83;3.50;;;;;;;;;;5085418;28;21079;-74
2021/03/14 14:03:53;;;;;;;5.83;3.90;;;;;;;;;;5085771;28;20996;-74
2021/03/14 14:06:20;;;;;;;5.60;3.40;;;;;;;;;;5081962;28;20444;-74
2021/03/14 14:08:48;;;;;;;4.30;3.80;;;;;;;;;;5086888;28;20562;-73
2021/03/14 14:11:15;;;;;;;4.00;3.10;;;;;;;;;;5091748;28;20941;-74
2021/03/14 14:13:41;;;;;;;3.53;2.53;;;;;;;;;;5086391;28;20546;-75
2021/03/14 14:16:08;;;;;;;3.30;2.73;;;;;;;;;;5094538;28;20475;-74
2021/03/14 14:18:35;;;;;;;4.70;3.03;;;;;;;;;;5095626;28;20540;-73
2021/03/14 14:21:02;;;;;;;3.90;3.50;;;;;;;;;;5094347;28;20525;-73
2021/03/14 14:23:29;;;;;;;3.27;2.80;;;;;;;;;;5091069;28;20474;-74
2021/03/14 14:25:57;;;;;;;5.07;3.13;;;;;;;;;;5090794;28;20961;-74
2021/03/14 14:28:23;;;;;;;5.50;5.00;;;;;;;;;;5081215;28;20524;-80
2021/03/14 14:30:51;;;;;;;7.73;5.63;;;;;;;;;;5089658;28;20520;-74
2021/03/14 14:33:17;;;;;;;8.57;5.70;;;;;;;;;;5091557;28;20997;-73
2021/03/14 14:35:44;;;;;;;23.07;11.30;;;;;;;;;;5087226;28;20456;-75
2021/03/14 14:38:11;;;;;;;11.93;8.60;;;;;;;;;;5091084;28;20443;-74
2021/03/14 14:40:38;;;;;;;6.87;4.60;;;;;;;;;;5090640;28;20457;-74
2021/03/14 14:43:06;;;;;;;7.90;4.83;;;;;;;;;;5084119;28;20540;-75
2021/03/14 14:45:32;;;;;;;3.53;3.20;;;;;;;;;;5092885;28;20451;-74
2021/03/14 14:47:59;;;;;;;4.60;3.70;;;;;;;;;;5086759;28;20575;-74